Latest Weather Observations for Devonport Airport

IDT60801

Issued at 5:05 pm EDT Wednesday 26 November 2014 (issued every 30 minutes, with the page automatically refreshed every 10 minutes)

About weather observations | Map of weather stations | Latest weather observations for TAS | Other Formats
Station Details ID: 091126 Name: DEVONPORT AIRPORT Lat: -41.17 Lon: 146.43 Height: 8.0 m
Data from the previous 72 hours. | See also: Recent months at Devonport Airport
Date/Time
EDT
Temp
°C
App
Temp
°C
Dew
Point
Rel
Hum
%
Delta-T
°C
Wind Press
QNH
hPa
Press
MSL
hPa
Rain
since 9 am
mm
Dir
 
Spd
km/h
Gust
km/h
Spd
kts
Gust
kts
26/05:00pm 18.5 12.0 4.7 40 6.6 WSW 28 35 15 19 1017.0 1017.0 0.0
26/04:30pm 18.3 11.2 3.8 38 6.8 W 30 39 16 21 1017.0 1017.0 0.0
26/04:00pm 18.5 11.7 5.0 41 6.5 W 30 41 16 22 1016.9 1016.9 0.0
26/03:30pm 18.5 10.5 5.7 43 6.3 W 37 48 20 26 1016.6 1016.6 0.0
26/03:00pm 18.2 10.3 6.1 45 5.9 WSW 37 48 20 26 1016.6 1016.6 0.0
26/02:30pm 18.6 11.6 5.8 43 6.3 WSW 32 50 17 27 1016.5 1016.5 0.0
26/02:14pm 18.5 12.3 6.0 44 6.2 WSW 28 46 15 25 1016.4 1016.4 0.0
26/02:00pm 18.4 10.4 5.9 44 6.1 WSW 37 48 20 26 1016.4 1016.4 0.0
26/01:30pm 18.3 11.0 5.5 43 6.2 W 33 48 18 26 1016.3 1016.3 0.0
26/01:00pm 18.2 11.1 5.4 43 6.2 WSW 32 46 17 25 1016.4 1016.4 0.0
26/12:30pm 18.0 10.5 4.6 41 6.4 WSW 33 50 18 27 1016.4 1016.4 0.0
26/12:00pm 17.9 12.4 5.8 45 5.9 SW 24 39 13 21 1016.3 1016.3 0.0
26/11:30am 16.5 9.0 4.2 44 5.7 WSW 33 48 18 26 1016.2 1016.2 0.0
26/11:20am 16.9 9.8 5.5 47 5.5 WSW 32 50 17 27 1016.2 1016.2 0.0
26/11:00am 16.5 10.3 6.1 50 5.0 SW 28 37 15 20 1016.3 1016.3 0.0
26/10:30am 16.1 9.0 5.7 50 5.0 WSW 32 46 17 25 1016.0 1016.0 0.0
26/10:00am 15.4 10.2 5.3 51 4.8 W 22 32 12 17 1016.0 1016.0 0.0
26/09:30am 15.3 8.7 4.4 48 5.1 WSW 28 39 15 21 1015.9 1015.9 0.0
26/09:00am 14.5 7.1 4.8 52 4.5 W 33 46 18 25 1015.7 1015.7 0.0
26/08:30am 14.2 7.0 5.8 57 4.0 W 33 48 18 26 1015.3 1015.3 0.0
26/08:00am 13.6 5.9 5.5 58 3.8 W 35 48 19 26 1015.0 1015.0 0.0
26/07:34am 13.9 7.1 7.0 63 3.4 W 32 59 17 32 1014.3 1014.3 0.0
26/07:30am 13.8 7.8 6.9 63 3.3 W 28 37 15 20 1014.5 1014.5 0.0
26/07:00am 13.4 8.6 8.9 74 2.3 WNW 24 39 13 21 1014.1 1014.1 0.0
26/06:30am 12.8 7.8 9.4 80 1.7 W 26 33 14 18 1013.8 1013.8 0.0
26/06:00am 12.9 6.7 9.9 82 1.5 WNW 33 43 18 23 1013.6 1013.6 0.0
26/05:30am 12.8 6.6 9.4 80 1.7 WNW 32 43 17 23 1013.2 1013.2 0.0
26/05:00am 12.4 6.2 10.1 86 1.2 WNW 33 43 18 23 1013.1 1013.1 0.0
26/04:30am 12.4 4.7 10.1 86 1.2 WNW 41 50 22 27 1012.5 1012.5 0.0
26/04:00am 12.3 5.0 10.2 87 1.1 WNW 39 48 21 26 1012.8 1012.8 0.0
26/03:30am 12.3 5.3 10.0 86 1.2 WNW 37 48 20 26 1013.1 1013.1 0.0
26/03:00am 12.2 4.8 9.8 85 1.2 WNW 39 50 21 27 1013.4 1013.4 0.0
26/02:30am 12.4 5.3 9.6 83 1.4 WNW 37 46 20 25 1013.8 1013.8 0.0
26/02:00am 12.4 5.3 9.4 82 1.5 WNW 37 46 20 25 1014.0 1014.0 0.0
26/01:30am 12.2 5.3 8.9 80 1.6 WNW 35 44 19 24 1014.3 1014.3 0.0
26/01:00am 12.2 5.7 8.1 76 2.0 WNW 32 46 17 25 1014.6 1014.6 0.0
26/12:30am 12.3 5.8 8.0 75 2.1 WNW 32 39 17 21 1015.0 1015.0 0.0
26/12:00am 12.1 6.2 7.6 74 2.2 WNW 28 35 15 19 1015.1 1015.1 0.0
 
Date/Time
EDT
Temp
°C
App
Temp
°C
Dew
Point
Rel
Hum
%
Delta-T
°C
Wind Press
QNH
hPa
Press
MSL
hPa
Rain
since 9 am
mm
Dir
 
Spd
km/h
Gust
km/h
Spd
kts
Gust
kts
25/11:30pm 12.0 5.7 7.5 74 2.2 WNW 30 39 16 21 1015.5 1015.5 0.0
25/11:00pm 11.5 6.2 7.0 74 2.1 W 24 35 13 19 1015.5 1015.5 0.0
25/10:30pm 11.9 5.8 6.8 71 2.4 W 28 33 15 18 1015.7 1015.7 0.0
25/10:00pm 11.9 5.4 6.4 69 2.6 W 30 41 16 22 1015.8 1015.8 0.0
25/09:30pm 11.9 6.1 6.4 69 2.6 W 26 32 14 17 1015.5 1015.5 0.0
25/09:00pm 12.0 6.5 6.1 67 2.8 W 24 35 13 19 1015.3 1015.3 0.0
25/08:30pm 13.1 8.0 5.8 61 3.4 W 22 30 12 16 1015.1 1015.1 0.0
25/08:00pm 13.7 8.0 4.8 55 4.1 W 24 30 13 16 1014.7 1014.7 0.0
25/07:30pm 13.8 7.5 5.7 58 3.8 W 28 41 15 22 1014.3 1014.3 0.0
25/07:00pm 14.3 6.7 5.7 56 4.1 W 35 50 19 27 1013.6 1013.6 0.0
25/06:47pm 15.2 7.9 5.4 52 4.7 W 33 52 18 28 1013.3 1013.3 0.0
25/06:30pm 15.3 8.3 6.1 54 4.4 W 32 43 17 23 1013.5 1013.5 0.0
25/06:00pm 16.1 8.6 6.5 53 4.7 W 35 44 19 24 1013.0 1013.0 0.0
25/05:30pm 16.6 8.0 6.7 52 4.9 W 41 59 22 32 1012.6 1012.6 0.0
25/05:17pm 16.5 7.2 6.1 50 5.1 W 44 65 24 35 1012.5 1012.5 0.0
25/05:00pm 17.0 7.2 7.1 52 4.9 W 48 59 26 32 1012.2 1012.2 0.0
25/04:48pm 16.3 8.0 6.2 51 4.9 W 39 59 21 32 1012.2 1012.2 0.0
25/04:30pm 17.2 8.8 7.5 53 4.9 W 41 52 22 28 1012.2 1012.2 0.0
25/04:00pm 16.7 7.5 8.1 57 4.4 W 46 63 25 34 1012.0 1012.0 0.0
25/03:35pm 17.0 9.2 8.4 57 4.4 W 39 61 21 33 1011.8 1011.8 0.0
25/03:30pm 17.0 9.3 10.1 64 3.6 W 41 52 22 28 1011.8 1011.8 0.0
25/03:11pm 16.8 9.7 8.0 56 4.5 W 35 54 19 29 1011.4 1011.4 0.0
25/03:00pm 18.1 10.8 8.9 55 4.8 W 37 48 20 26 1011.5 1011.5 0.0
25/02:30pm 17.7 11.5 7.7 52 5.1 W 30 39 16 21 1011.4 1011.4 0.0
25/02:20pm 17.2 10.7 8.9 58 4.3 W 33 52 18 28 1011.4 1011.4 0.0
25/02:00pm 18.1 11.2 8.9 55 4.8 W 35 44 19 24 1011.2 1011.2 0.0
25/01:30pm 18.5 9.8 7.9 50 5.4 W 43 57 23 31 1011.2 1011.2 0.0
25/01:16pm 18.4 10.6 8.4 52 5.2 WNW 39 48 21 26 1011.2 1011.2 0.0
25/01:04pm 16.7 9.6 6.5 51 5.0 W 33 54 18 29 1011.3 1011.3 0.0
25/01:00pm 16.7 9.6 6.2 50 5.1 W 33 44 18 24 1011.3 1011.3 0.0
25/12:30pm 17.1 10.4 7.2 52 4.9 WSW 32 52 17 28 1011.1 1011.1 0.0
25/12:26pm 17.0 9.9 6.2 49 5.3 WSW 33 52 18 28 1011.2 1011.2 0.0
25/12:00pm 17.1 9.6 6.3 49 5.3 WSW 35 52 19 28 1011.0 1011.0 0.0
25/11:30am 16.9 8.7 6.7 51 5.0 WSW 39 52 21 28 1010.5 1010.5 0.0
25/11:00am 16.3 7.4 6.7 53 4.7 W 43 57 23 31 1010.3 1010.3 0.0
25/10:39am 16.3 8.4 6.2 51 4.9 W 37 61 20 33 1009.8 1009.8 0.0
25/10:30am 16.3 9.0 7.0 54 4.6 W 35 48 19 26 1009.8 1009.8 0.0
25/10:00am 15.7 7.2 7.0 56 4.3 W 41 54 22 29 1009.7 1009.7 0.0
25/09:30am 14.7 7.3 6.8 59 3.8 W 35 52 19 28 1009.4 1009.4 0.0
25/09:23am 14.4 7.4 6.7 60 3.7 W 33 52 18 28 1009.5 1009.5 0.0
25/09:00am 13.7 5.4 6.3 61 3.5 W 39 48 21 26 1009.2 1009.2 2.4
25/08:30am 14.2 6.8 6.6 60 3.7 W 35 46 19 25 1009.0 1009.0 2.4
25/08:00am 13.8 7.2 6.2 60 3.6 W 30 39 16 21 1008.5 1008.5 2.4
25/07:30am 13.1 7.7 6.5 64 3.2 W 24 33 13 18 1008.3 1008.3 2.4
25/07:00am 12.2 7.3 6.9 70 2.5 W 22 28 12 15 1008.0 1008.0 2.4
25/06:30am 11.5 6.5 6.4 71 2.4 W 22 28 12 15 1007.5 1007.5 2.4
25/06:00am 11.4 5.5 7.3 76 2.0 WNW 28 35 15 19 1007.1 1007.1 2.4
25/05:30am 11.3 4.8 8.0 80 1.6 WNW 32 43 17 23 1006.6 1006.6 2.4
25/05:00am 11.3 4.6 8.0 80 1.6 W 33 44 18 24 1006.0 1006.0 2.4
25/04:30am 10.9 4.2 8.1 83 1.4 W 33 43 18 23 1006.0 1006.0 2.4
25/04:00am 11.1 4.4 8.3 83 1.4 WNW 33 41 18 22 1005.8 1005.8 2.4
25/03:30am 11.2 4.2 8.4 83 1.4 WNW 35 43 19 23 1005.8 1005.8 2.4
25/03:00am 11.2 4.7 8.1 81 1.5 WNW 32 39 17 21 1006.2 1006.2 2.4
25/02:30am 10.8 5.0 7.9 82 1.4 W 28 39 15 21 1006.4 1006.4 2.4
25/02:00am 11.1 4.8 7.6 79 1.7 WNW 30 39 16 21 1006.4 1006.4 2.4
25/01:30am 10.7 5.1 7.2 79 1.7 W 26 33 14 18 1006.7 1006.7 2.4
25/01:00am 10.9 5.2 6.8 76 1.9 WNW 26 33 14 18 1007.1 1007.1 2.4
25/12:30am 11.1 5.5 7.2 77 1.9 WNW 26 33 14 18 1007.2 1007.2 2.4
25/12:00am 9.7 7.4 5.7 76 1.8 SSW 7 13 4 7 1007.4 1007.4 2.4
 
Date/Time
EDT
Temp
°C
App
Temp
°C
Dew
Point
Rel
Hum
%
Delta-T
°C
Wind Press
QNH
hPa
Press
MSL
hPa
Rain
since 9 am
mm
Dir
 
Spd
km/h
Gust
km/h
Spd
kts
Gust
kts
24/11:30pm 10.0 6.3 6.5 79 1.6 W 15 19 8 10 1007.4 1007.4 2.4
24/11:00pm 9.0 5.6 6.1 82 1.3 W 13 15 7 8 1007.4 1007.4 2.4
24/10:30pm 9.4 6.0 5.9 79 1.6 W 13 15 7 8 1007.3 1007.3 2.4
24/10:00pm 10.0 6.6 6.0 76 1.9 W 13 17 7 9 1007.1 1007.1 2.4
24/09:30pm 11.4 6.9 7.1 75 2.1 W 20 26 11 14 1006.4 1006.4 2.4
24/09:00pm 11.3 6.7 6.6 73 2.2 W 20 24 11 13 1005.7 1005.7 2.4
24/08:30pm 12.4 5.3 6.5 67 2.8 W 33 46 18 25 1005.2 1005.2 2.4
24/08:28pm 12.6 5.6 6.2 65 3.0 W 32 46 17 25 1005.2 1005.2 2.4
24/08:00pm 13.9 10.8 12.1 89 1.0 NW 20 26 11 14 1004.8 1004.8 2.4
24/07:30pm 13.4 10.8 12.1 92 0.7 NW 17 24 9 13 1004.6 1004.6 2.4
24/07:00pm 13.7 12.7 12.3 91 0.8 NNW 9 9 5 5 1004.2 1004.2 2.4
24/06:30pm 13.6 12.6 12.2 91 0.8 W 9 17 5 9 1004.2 1004.2 2.4
24/06:00pm 13.6 12.2 12.3 92 0.7 SW 11 13 6 7 1004.1 1004.1 2.4
24/05:56pm 13.5 12.5 12.2 92 0.7 SW 9 13 5 7 1004.1 1004.1 2.4
24/05:30pm 13.0 11.9 12.1 94 0.5 SSW 9 11 5 6 1003.9 1003.9 2.4
24/05:28pm 13.1 12.1 12.2 94 0.5 SSW 9 13 5 7 1004.0 1004.0 2.4
24/05:00pm 12.9 11.1 12.0 94 0.5 WSW 13 15 7 8 1004.6 1004.6 2.2
24/04:30pm 12.9 13.4 11.6 92 0.7 CALM 0 0 0 0 1004.6 1004.6 2.0
24/04:24pm 12.9 13.4 11.6 92 0.7 CALM 0 0 0 0 1004.6 1004.6 2.0
24/04:17pm 12.9 13.5 11.8 93 0.6 CALM 0 0 0 0 1004.7 1004.7 2.0
24/04:00pm 12.8 12.0 11.7 93 0.6 NE 7 11 4 6 1005.0 1005.0 1.8
24/03:34pm 13.1 11.2 11.8 92 0.7 NE 13 15 7 8 1005.4 1005.4 1.4
24/03:30pm 13.3 11.4 11.9 91 0.7 NE 13 15 7 8 1005.4 1005.4 1.2
24/03:23pm 13.3 11.3 11.5 89 1.0 NNE 13 15 7 8 1005.5 1005.5 1.2
24/03:04pm 13.7 11.2 11.2 85 1.3 ENE 15 19 8 10 1005.7 1005.7 1.2
24/03:00pm 13.8 11.4 11.3 85 1.3 ENE 15 19 8 10 1005.6 1005.6 1.2
24/02:46pm 14.1 13.0 11.8 86 1.2 ENE 9 15 5 8 1005.7 1005.7 1.2
24/02:30pm 13.9 12.6 11.2 84 1.4 E 9 13 5 7 1005.9 1005.9 1.0
24/02:00pm 13.9 12.4 10.5 80 1.8 E 9 11 5 6 1006.5 1006.5 1.0
24/01:30pm 13.7 10.1 10.7 82 1.6 NE 20 24 11 13 1007.6 1007.6 1.0
24/01:00pm 14.6 13.9 11.4 81 1.7 E 6 11 3 6 1008.0 1008.0 0.8
24/12:30pm 14.3 13.3 10.9 80 1.8 E 7 11 4 6 1008.6 1008.6 0.8
24/12:00pm 14.2 12.9 11.2 82 1.6 S 9 11 5 6 1009.0 1009.0 0.8
24/11:30am 14.0 10.9 10.2 78 2.0 SSE 17 19 9 10 1009.0 1009.0 0.8
24/11:00am 13.9 11.1 11.2 84 1.4 SSE 17 20 9 11 1009.7 1009.7 0.8
24/10:30am 13.2 11.0 10.9 86 1.2 S 13 17 7 9 1010.3 1010.3 0.8
24/10:00am 12.6 9.8 10.1 85 1.3 SSE 15 19 8 10 1010.5 1010.5 0.6
24/09:30am 12.2 9.0 10.1 87 1.1 S 17 20 9 11 1010.4 1010.4 0.6
24/09:00am 13.5 11.4 9.7 78 2.0 S 11 15 6 8 1011.1 1011.1 0.0
24/08:30am 13.5 10.8 9.0 74 2.3 SSE 13 17 7 9 1010.8 1010.8 0.0
24/08:00am 11.2 8.2 9.1 87 1.0 S 15 19 8 10 1010.7 1010.7 0.0
24/07:30am 11.5 8.8 9.1 85 1.2 S 13 17 7 9 1011.4 1011.4 0.0
24/07:00am 11.8 10.4 9.5 86 1.2 SSW 7 11 4 6 1010.9 1010.9 0.0
24/06:30am 11.9 10.5 9.5 85 1.2 ENE 7 9 4 5 1010.2 1010.2 0.0
24/06:00am 11.8 9.3 8.3 79 1.7 SSE 11 15 6 8 1010.6 1010.6 0.0
24/05:30am 11.3 8.9 8.5 83 1.4 S 11 13 6 7 1011.1 1011.1 0.0
24/05:00am 10.9 9.3 8.8 87 1.0 S 7 9 4 5 1011.1 1011.1 0.0
24/04:30am 9.9 8.7 8.0 88 0.9 S 4 7 2 4 1011.6 1011.6 0.0
24/04:00am 9.1 7.4 7.4 89 0.8 SE 6 6 3 3 1011.8 1011.8 0.0
24/03:30am 8.7 6.8 6.7 87 0.9 SSE 6 6 3 3 1011.7 1011.7 0.0
24/03:00am 8.5 6.4 6.5 87 0.9 S 7 9 4 5 1011.5 1011.5 0.0
24/02:30am 9.0 7.1 6.6 85 1.1 SSW 6 7 3 4 1011.8 1011.8 0.0
24/02:00am 9.0 7.1 6.6 85 1.1 S 6 9 3 5 1011.6 1011.6 0.0
24/01:30am 9.6 9.0 7.4 86 1.0 CALM 0 0 0 0 1012.2 1012.2 0.0
24/01:00am 10.2 9.6 7.3 82 1.4 CALM 0 0 0 0 1012.4 1012.4 0.0
24/12:30am 11.3 10.7 7.4 77 1.9 CALM 0 0 0 0 1012.7 1012.7 0.0
24/12:00am 12.8 10.4 7.0 68 2.8 WSW 9 11 5 6 1012.6 1012.6 0.0
 
Date/Time
EDT
Temp
°C
App
Temp
°C
Dew
Point
Rel
Hum
%
Delta-T
°C
Wind Press
QNH
hPa
Press
MSL
hPa
Rain
since 9 am
mm
Dir
 
Spd
km/h
Gust
km/h
Spd
kts
Gust
kts
23/11:30pm 13.4 12.9 7.8 69 2.8 CALM 0 0 0 0 1012.5 1012.5 0.0
23/11:00pm 15.4 12.9 6.4 55 4.4 SW 9 11 5 6 1012.5 1012.5 0.0
23/10:30pm 16.1 14.0 6.5 53 4.7 SW 7 11 4 6 1012.5 1012.5 0.0
23/10:00pm 14.6 11.8 6.9 60 3.8 W 11 13 6 7 1012.5 1012.5 0.0
23/09:30pm 15.4 11.5 6.9 57 4.2 WSW 17 20 9 11 1012.3 1012.3 0.0
23/09:00pm 15.3 11.5 7.6 60 3.8 W 17 20 9 11 1012.0 1012.0 0.0
23/08:30pm 16.0 11.4 11.2 73 2.6 WNW 26 32 14 17 1011.6 1011.6 0.0
23/08:00pm 15.9 10.4 11.9 77 2.2 WNW 32 39 17 21 1011.1 1011.1 0.0
23/07:30pm 16.2 9.2 11.2 72 2.7 NW 39 46 21 25 1010.6 1010.6 0.0
23/07:00pm 16.4 8.6 11.1 71 2.8 NW 43 54 23 29 1010.1 1010.1 0.0
23/06:30pm 16.8 9.0 11.1 69 3.1 NW 43 54 23 29 1009.7 1009.7 0.0
23/06:00pm 17.2 9.5 11.5 69 3.1 NW 43 56 23 30 1009.6 1009.6 0.0
23/05:30pm 17.3 9.4 11.6 69 3.1 NW 44 56 24 30 1009.4 1009.4 0.0

Other Formats:

Comma delimited format used in spreadsheet applications
http://www.bom.gov.au/fwo/IDT60801/IDT60801.95960.axf

JavaScript Object Notation format (JSON) in row-major order
http://www.bom.gov.au/fwo/IDT60801/IDT60801.95960.json